Time;durP1;ratioP1;P1;durP2;ratioP2;P2;SDS_P1;SDS_P2;PMS_P1;PMS_P2;Temp;Humidity;BMP_temperature;BMP_pressure;BME280_temperature;BME280_humidity;BME280_pressure;Samples;Min_cycle;Max_cycle;Signal;HPM_P1;HPM_P2
2023/05/04 00:01:40;;;;;;;22.00;12.02;;;;;;;8.73;68.61;102176.66;5072070;28;20133;-50
2023/05/04 00:04:05;;;;;;;21.63;12.77;;;;;;;8.70;68.96;102174.41;5071730;28;20455;-51
2023/05/04 00:06:31;;;;;;;23.45;13.20;;;;;;;8.66;69.12;102164.16;5070459;28;20415;-50
2023/05/04 00:08:56;;;;;;;22.55;11.98;;;;;;;8.63;69.20;102156.38;5071803;28;20024;-51
2023/05/04 00:11:22;;;;;;;21.73;12.35;;;;;;;8.61;69.40;102153.03;5071486;28;20457;-49
2023/05/04 00:13:47;;;;;;;23.27;12.65;;;;;;;8.57;69.83;102158.25;5071570;28;20025;-51
2023/05/04 00:16:12;;;;;;;21.65;12.27;;;;;;;8.53;69.62;102146.91;5071488;28;20028;-53
2023/05/04 00:18:38;;;;;;;22.90;12.50;;;;;;;8.53;69.75;102149.69;5071499;28;20429;-50
2023/05/04 00:21:03;;;;;;;23.08;12.40;;;;;;;8.48;70.16;102141.34;5071476;28;20036;-50
2023/05/04 00:23:28;;;;;;;21.20;11.65;;;;;;;8.40;70.38;102126.06;5071371;28;20444;-51
2023/05/04 00:25:54;;;;;;;20.38;12.48;;;;;;;8.44;70.37;102137.41;5071471;28;20075;-48
2023/05/04 00:28:19;;;;;;;23.88;12.85;;;;;;;8.40;70.39;102131.59;5071418;28;20078;-49
2023/05/04 00:30:45;;;;;;;23.48;12.95;;;;;;;8.38;70.90;102133.75;5071443;28;20040;-52
2023/05/04 00:33:10;;;;;;;22.90;11.63;;;;;;;8.38;70.81;102127.44;5069828;28;20090;-48
2023/05/04 00:35:35;;;;;;;21.48;12.30;;;;;;;8.33;71.10;102128.22;5071045;28;20035;-49
2023/05/04 00:38:02;;;;;;;22.33;12.75;;;;;;;8.32;71.24;102120.19;5071162;28;20055;-48
2023/05/04 00:40:28;;;;;;;22.90;13.07;;;;;;;8.31;71.18;102116.59;5071101;28;20039;-49
2023/05/04 00:42:53;;;;;;;22.85;13.10;;;;;;;8.24;71.69;102114.03;5071111;28;20099;-49
2023/05/04 00:45:19;;;;;;;24.85;12.95;;;;;;;8.24;71.70;102116.81;5071156;28;20029;-49
2023/05/04 00:47:44;;;;;;;23.02;13.07;;;;;;;8.23;71.95;102119.81;5070928;28;20468;-50
2023/05/04 00:50:10;;;;;;;24.52;14.10;;;;;;;8.18;72.50;102111.47;5071069;28;20031;-47
2023/05/04 00:52:36;;;;;;;21.67;12.88;;;;;;;8.14;72.55;102107.59;5069671;28;20116;-51
2023/05/04 00:55:02;;;;;;;22.42;13.00;;;;;;;8.08;72.91;102101.19;5070956;28;20035;-51
2023/05/04 00:57:27;;;;;;;20.92;12.98;;;;;;;8.04;73.27;102103.63;5070930;28;20043;-50
2023/05/04 00:59:52;;;;;;;21.63;13.30;;;;;;;8.02;73.02;102099.47;5070901;28;20035;-51
2023/05/04 01:02:19;;;;;;;24.70;13.52;;;;;;;8.01;73.79;102101.38;5071062;28;20032;-50
2023/05/04 01:04:45;;;;;;;21.85;12.63;;;;;;;7.93;74.07;102091.66;5071074;28;20028;-51
2023/05/04 01:07:36;;;;;;;24.52;13.10;;;;;;;7.92;74.54;102098.28;5070937;28;20031;-50
2023/05/04 01:10:14;;;;;;;21.15;12.55;;;;;;;7.87;74.78;102100.94;5068849;28;20131;-52
2023/05/04 01:12:56;;;;;;;23.02;12.25;;;;;;;7.84;74.74;102104.22;5070838;28;20036;-49
2023/05/04 01:15:22;;;;;;;21.67;12.20;;;;;;;7.79;74.87;102098.66;5070787;28;20480;-49
2023/05/04 01:17:48;;;;;;;21.95;12.75;;;;;;;7.77;75.20;102090.66;5069407;28;20059;-50
2023/05/04 01:20:13;;;;;;;22.85;13.90;;;;;;;7.74;75.95;102091.16;5070742;28;20519;-51
2023/05/04 01:22:39;;;;;;;22.48;13.82;;;;;;;7.70;76.12;102089.97;5070779;28;20060;-53
2023/05/04 01:25:05;;;;;;;22.35;12.73;;;;;;;7.68;76.06;102083.94;5069581;28;20020;-51
2023/05/04 01:27:53;;;;;;;24.58;14.05;;;;;;;7.64;76.50;102077.25;5070728;28;20048;-51
2023/05/04 01:30:24;;;;;;;23.42;13.80;;;;;;;7.58;77.08;102086.53;5070714;28;20480;-51
2023/05/04 01:32:51;;;;;;;23.63;14.20;;;;;;;7.51;77.69;102078.47;5070521;28;20028;-50
2023/05/04 01:35:17;;;;;;;22.52;13.20;;;;;;;7.49;77.62;102075.97;5070706;28;20036;-50
2023/05/04 01:37:42;;;;;;;24.17;13.65;;;;;;;7.46;77.99;102076.47;5070692;28;20095;-50
2023/05/04 01:40:08;;;;;;;22.00;13.02;;;;;;;7.44;77.54;102083.34;5070691;28;20044;-52
2023/05/04 01:42:33;;;;;;;22.92;12.95;;;;;;;7.43;77.48;102079.72;5072805;28;20032;-52
2023/05/04 01:44:59;;;;;;;23.13;13.43;;;;;;;7.39;78.28;102084.09;5074227;28;20032;-50
2023/05/04 01:47:24;;;;;;;22.20;13.27;;;;;;;7.37;78.32;102085.44;5074270;28;20032;-50
2023/05/04 01:49:49;;;;;;;23.02;13.63;;;;;;;7.32;78.92;102080.69;5074100;28;20149;-49
2023/05/04 01:52:15;;;;;;;22.27;12.98;;;;;;;7.27;79.08;102081.47;5074035;28;20131;-50
2023/05/04 01:54:40;;;;;;;22.30;12.73;;;;;;;7.26;79.38;102081.69;5073870;28;20025;-48
2023/05/04 01:57:05;;;;;;;23.48;13.55;;;;;;;7.22;79.71;102083.31;5073884;28;20078;-51
2023/05/04 01:59:31;;;;;;;23.23;13.27;;;;;;;7.17;80.01;102081.31;5073975;28;20470;-51
2023/05/04 02:01:56;;;;;;;23.35;13.05;;;;;;;7.15;80.20;102083.47;5074004;28;20808;-53
2023/05/04 02:04:21;;;;;;;21.65;12.50;;;;;;;7.12;80.58;102079.31;5072613;28;20032;-49
2023/05/04 02:06:47;;;;;;;22.55;12.73;;;;;;;7.12;80.36;102082.06;5074007;28;20032;-51
2023/05/04 02:09:13;;;;;;;21.95;12.85;;;;;;;7.12;80.12;102083.97;5073979;28;20036;-50
2023/05/04 02:11:38;;;;;;;20.98;12.77;;;;;;;7.17;79.61;102084.06;5072309;28;20038;-52
2023/05/04 02:14:03;;;;;;;21.25;12.93;;;;;;;7.14;80.09;102088.13;5073649;28;20452;-51
2023/05/04 02:16:29;;;;;;;22.30;12.63;;;;;;;7.13;79.85;102078.19;5073465;28;20123;-51
2023/05/04 02:18:54;;;;;;;22.83;12.70;;;;;;;7.10;80.18;102078.72;5073493;28;20021;-48
2023/05/04 02:21:20;;;;;;;22.98;12.82;;;;;;;7.08;80.53;102080.06;5072411;28;20115;-50
2023/05/04 02:23:45;;;;;;;22.35;12.65;;;;;;;7.07;80.34;102083.91;5073972;28;20403;-50
2023/05/04 02:26:10;;;;;;;22.20;12.27;;;;;;;7.02;80.89;102077.22;5072495;28;20094;-49
2023/05/04 02:28:36;;;;;;;24.58;13.30;;;;;;;6.97;81.38;102077.16;5073701;28;20049;-49
2023/05/04 02:31:01;;;;;;;25.65;14.07;;;;;;;6.97;81.51;102074.41;5073533;28;20024;-52
2023/05/04 02:33:26;;;;;;;24.13;13.80;;;;;;;6.94;81.71;102076.84;5073702;28;20027;-52
2023/05/04 02:35:52;;;;;;;24.65;13.00;;;;;;;6.94;81.56;102068.59;5072200;28;20027;-51
2023/05/04 02:38:17;;;;;;;23.70;12.90;;;;;;;6.89;82.01;102066.59;5072115;28;20085;-52
2023/05/04 02:40:42;;;;;;;21.92;12.93;;;;;;;6.84;82.55;102060.97;5073612;28;20082;-51
2023/05/04 02:43:08;;;;;;;24.33;13.20;;;;;;;6.83;82.17;102059.31;5073259;28;20374;-51
2023/05/04 02:45:34;;;;;;;23.77;13.07;;;;;;;6.79;82.52;102058.97;5073150;28;20585;-51
2023/05/04 02:47:59;;;;;;;23.05;13.15;;;;;;;6.75;82.51;102059.75;5073189;28;20084;-49
2023/05/04 02:50:24;;;;;;;23.10;13.82;;;;;;;6.73;82.62;102060.00;5073239;28;20024;-52
2023/05/04 02:52:49;;;;;;;23.77;13.35;;;;;;;6.66;83.70;102057.41;5072411;28;20032;-49
2023/05/04 02:55:15;;;;;;;24.48;13.50;;;;;;;6.64;83.59;102065.06;5071317;28;20024;-48
2023/05/04 02:57:41;;;;;;;31.00;14.48;;;;;;;6.61;83.80;102057.34;5073291;28;20043;-49
2023/05/04 03:00:08;;;;;;;26.17;13.52;;;;;;;6.59;83.64;102062.25;5073217;28;20029;-52
2023/05/04 03:02:33;;;;;;;26.50;13.98;;;;;;;6.55;84.28;102058.31;5073021;28;20040;-51
2023/05/04 03:04:58;;;;;;;25.63;13.48;;;;;;;6.51;84.51;102054.41;5073090;28;20036;-50
2023/05/04 03:07:24;;;;;;;22.83;13.23;;;;;;;6.49;84.48;102056.56;5073230;28;20460;-49
2023/05/04 03:09:50;;;;;;;22.67;13.50;;;;;;;6.46;84.75;102055.16;5072996;28;20191;-48
2023/05/04 03:12:15;;;;;;;22.83;13.52;;;;;;;6.45;85.46;102058.13;5072952;28;20472;-49
2023/05/04 03:14:40;;;;;;;21.35;12.93;;;;;;;6.43;85.29;102054.78;5072974;28;20056;-48
2023/05/04 03:17:06;;;;;;;22.88;14.00;;;;;;;6.41;85.26;102057.81;5072847;28;20452;-51
2023/05/04 03:19:32;;;;;;;22.95;13.50;;;;;;;6.35;85.67;102048.63;5071650;28;20203;-51
2023/05/04 03:21:57;;;;;;;25.95;14.10;;;;;;;6.34;85.40;102048.88;5073003;28;20123;-51
2023/05/04 03:24:22;;;;;;;25.02;14.75;;;;;;;6.29;86.17;102046.03;5072715;28;20039;-49
2023/05/04 03:26:48;;;;;;;22.45;13.77;;;;;;;6.27;86.20;102046.28;5072810;28;20020;-48
2023/05/04 03:29:13;;;;;;;23.45;13.98;;;;;;;6.27;86.05;102045.47;5072755;28;20440;-50
2023/05/04 03:31:38;;;;;;;23.95;14.25;;;;;;;6.22;86.84;102041.53;5072832;28;20107;-51
2023/05/04 03:34:04;;;;;;;23.20;14.13;;;;;;;6.21;86.20;102048.13;5072877;28;20375;-50
2023/05/04 03:36:29;;;;;;;22.55;13.52;;;;;;;6.17;87.18;102035.97;5071058;28;20040;-52
2023/05/04 03:38:55;;;;;;;23.35;13.80;;;;;;;6.17;86.83;102033.22;5072609;28;20056;-51
2023/05/04 03:41:20;;;;;;;24.00;13.82;;;;;;;6.14;87.42;102030.13;5072437;28;20476;-50
2023/05/04 03:43:46;;;;;;;25.90;14.32;;;;;;;6.13;87.39;102037.53;5072356;28;20033;-52
2023/05/04 03:46:11;;;;;;;22.15;13.32;;;;;;;6.12;87.19;102030.38;5072344;28;20076;-51
2023/05/04 03:48:37;;;;;;;23.85;14.48;;;;;;;6.09;87.54;102017.97;5072295;28;20032;-52
2023/05/04 03:51:03;;;;;;;23.60;14.13;;;;;;;6.08;87.99;102021.78;5072171;28;20033;-49
2023/05/04 03:53:28;;;;;;;23.05;14.15;;;;;;;6.08;88.18;102018.22;5071939;28;20024;-49
2023/05/04 03:55:53;;;;;;;24.48;14.48;;;;;;;6.06;88.41;102020.38;5072035;28;20016;-53
2023/05/04 03:58:19;;;;;;;22.65;14.13;;;;;;;6.06;87.95;102021.19;5072372;28;20161;-50
2023/05/04 04:00:44;;;;;;;25.38;15.65;;;;;;;6.06;88.05;102017.63;5072032;28;20059;-52
2023/05/04 04:03:09;;;;;;;23.85;14.60;;;;;;;6.06;88.12;102017.63;5070905;28;20059;-52
2023/05/04 04:05:35;;;;;;;24.30;13.63;;;;;;;6.06;88.62;102023.94;5071762;28;20109;-49
2023/05/04 04:08:00;;;;;;;26.88;14.30;;;;;;;6.06;88.48;102020.38;5071892;28;20024;-51
2023/05/04 04:10:25;;;;;;;23.40;13.55;;;;;;;6.05;88.60;102018.69;5071708;28;20032;-52
2023/05/04 04:12:51;;;;;;;24.65;14.27;;;;;;;6.05;88.60;102025.00;5072034;28;20107;-50
2023/05/04 04:15:16;;;;;;;26.90;14.93;;;;;;;6.05;88.82;102019.50;5071619;28;20117;-49
2023/05/04 04:17:41;;;;;;;23.45;14.43;;;;;;;6.07;88.51;102022.03;5071882;28;20028;-52
2023/05/04 04:20:07;;;;;;;25.45;15.05;;;;;;;6.09;88.61;102020.72;5071807;28;20594;-52
2023/05/04 04:22:34;;;;;;;23.23;13.93;;;;;;;6.12;88.27;102018.56;5071880;28;20032;-48
2023/05/04 04:25:00;;;;;;;24.65;13.52;;;;;;;6.14;88.10;102017.22;5071728;28;20476;-52
2023/05/04 04:27:25;;;;;;;21.73;13.48;;;;;;;6.18;88.05;102025.78;5071746;28;20032;-53
2023/05/04 04:29:50;;;;;;;24.05;13.77;;;;;;;6.21;87.81;102019.81;5071974;28;20088;-53
2023/05/04 04:32:15;;;;;;;24.45;14.27;;;;;;;6.23;87.54;102010.22;5071623;28;20111;-53
2023/05/04 04:34:41;;;;;;;24.63;13.18;;;;;;;6.27;87.75;102010.56;5071620;28;20422;-50
2023/05/04 04:37:06;;;;;;;21.80;12.90;;;;;;;6.30;87.66;102000.97;5071768;28;20039;-48
2023/05/04 04:39:31;;;;;;;23.48;13.77;;;;;;;6.35;87.87;102012.09;5071503;28;20033;-52
2023/05/04 04:41:57;;;;;;;22.33;13.65;;;;;;;6.43;87.05;102008.06;5071564;28;20075;-53
2023/05/04 04:44:22;;;;;;;24.27;13.45;;;;;;;6.44;87.30;102013.34;5071273;28;20033;-52
2023/05/04 04:46:48;;;;;;;22.48;13.93;;;;;;;6.47;87.02;102003.75;5071591;28;20024;-52
2023/05/04 04:49:13;;;;;;;23.80;13.75;;;;;;;6.53;86.81;102009.09;5070067;28;20423;-51
2023/05/04 04:51:40;;;;;;;24.08;13.63;;;;;;;6.56;86.95;102005.00;5071699;28;20033;-53
2023/05/04 04:54:06;;;;;;;23.60;13.35;;;;;;;6.64;86.09;102006.50;5070038;28;20035;-49
2023/05/04 04:56:31;;;;;;;21.60;12.98;;;;;;;6.64;86.25;102001.00;5070978;28;20395;-48
2023/05/04 04:58:56;;;;;;;23.00;13.93;;;;;;;6.66;86.53;102001.59;5071004;28;20032;-49
2023/05/04 05:01:22;;;;;;;24.17;13.88;;;;;;;6.70;86.08;101997.25;5070895;28;20039;-49
2023/05/04 05:03:48;;;;;;;26.20;13.93;;;;;;;6.72;85.90;102001.41;5070988;28;20039;-49
2023/05/04 05:06:14;;;;;;;23.67;13.27;;;;;;;6.74;86.15;102001.16;5071076;28;20469;-49
2023/05/04 05:08:40;;;;;;;22.35;13.00;;;;;;;6.79;85.55;102009.47;5069570;28;20063;-47
2023/05/04 05:11:05;;;;;;;22.95;13.73;;;;;;;6.85;85.45;102010.38;5069445;28;20048;-48
2023/05/04 05:13:31;;;;;;;21.63;13.38;;;;;;;6.86;85.66;102006.56;5070819;28;20122;-48
2023/05/04 05:15:56;;;;;;;25.02;14.18;;;;;;;6.88;84.83;102007.16;5070813;28;20025;-48
2023/05/04 05:18:22;;;;;;;22.30;13.30;;;;;;;6.93;85.10;102009.97;5073441;28;20032;-51
2023/05/04 05:20:48;;;;;;;23.77;13.23;;;;;;;7.00;84.83;102010.59;5073608;28;20020;-52
2023/05/04 05:23:13;;;;;;;24.88;13.50;;;;;;;7.05;84.63;102009.03;5074997;28;20498;-49
2023/05/04 05:25:39;;;;;;;26.20;13.95;;;;;;;6.99;84.57;101988.84;5073568;28;20032;-51
2023/05/04 05:28:04;;;;;;;24.55;13.88;;;;;;;7.03;84.54;102010.09;5073295;28;20395;-49
2023/05/04 05:30:29;;;;;;;25.48;14.55;;;;;;;7.03;84.88;102003.78;5074819;28;20029;-49
2023/05/04 05:32:55;;;;;;;23.30;13.95;;;;;;;7.13;84.44;102014.91;5074750;28;20036;-52
2023/05/04 05:35:20;;;;;;;22.85;13.77;;;;;;;7.15;84.61;102001.72;5074788;28;20028;-52
2023/05/04 05:37:47;;;;;;;24.02;13.50;;;;;;;7.26;84.38;102012.88;5074721;28;20078;-49
2023/05/04 05:40:13;;;;;;;23.30;13.70;;;;;;;7.30;84.08;102014.88;5073171;28;20115;-49
2023/05/04 05:42:38;;;;;;;23.30;13.80;;;;;;;7.41;83.97;102015.84;5074661;28;20536;-49
2023/05/04 05:45:04;;;;;;;23.60;14.25;;;;;;;7.48;83.30;102008.22;5074708;28;20105;-52
2023/05/04 05:47:30;;;;;;;23.65;13.43;;;;;;;7.60;83.36;102016.34;5073541;28;20480;-53
2023/05/04 05:49:55;;;;;;;23.52;13.80;;;;;;;7.69;82.78;102010.38;5074649;28;20092;-53
2023/05/04 05:52:20;;;;;;;24.02;13.55;;;;;;;7.79;82.43;102011.31;5074735;28;20326;-52
2023/05/04 05:54:46;;;;;;;24.48;14.05;;;;;;;7.94;81.92;102012.59;5074592;28;20032;-51
2023/05/04 05:57:11;;;;;;;21.67;13.55;;;;;;;8.04;81.31;102009.94;5074746;28;20040;-51
2023/05/04 05:59:36;;;;;;;25.08;13.52;;;;;;;8.15;80.64;102008.09;5074519;28;20467;-49
2023/05/04 06:02:01;;;;;;;22.63;14.57;;;;;;;8.20;80.28;102001.81;5074204;28;20125;-50
2023/05/04 06:04:27;;;;;;;25.00;13.73;;;;;;;8.27;80.28;102000.50;5072804;28;20429;-50
2023/05/04 06:06:52;;;;;;;24.70;13.73;;;;;;;8.37;80.17;101998.94;5073948;28;20337;-51
2023/05/04 06:09:18;;;;;;;22.38;13.70;;;;;;;8.46;79.96;102000.09;5074051;28;20104;-49
2023/05/04 06:11:43;;;;;;;24.73;15.77;;;;;;;8.56;79.33;101994.69;5074223;28;20337;-51
2023/05/04 06:14:08;;;;;;;23.85;13.73;;;;;;;8.62;79.21;101995.56;5073966;28;20468;-52
2023/05/04 06:16:34;;;;;;;23.48;13.88;;;;;;;8.71;79.10;101991.22;5073875;28;20029;-50
2023/05/04 06:18:59;;;;;;;23.73;14.23;;;;;;;8.83;79.21;101984.69;5073959;28;20131;-49
2023/05/04 06:21:25;;;;;;;23.05;14.43;;;;;;;8.91;78.21;101975.91;5073819;28;20058;-49
2023/05/04 06:23:50;;;;;;;24.15;14.45;;;;;;;9.00;77.72;101967.91;5073763;28;20052;-48
2023/05/04 06:26:16;;;;;;;21.80;13.35;;;;;;;9.04;77.25;101966.31;5073537;28;20032;-48
2023/05/04 06:28:41;;;;;;;24.08;14.13;;;;;;;9.12;77.07;101960.25;5073194;28;20052;-51
2023/05/04 06:31:07;;;;;;;23.92;14.40;;;;;;;9.21;76.65;101960.56;5073597;28;20023;-50
2023/05/04 06:33:32;;;;;;;23.08;13.98;;;;;;;9.27;76.20;101965.03;5073462;28;20064;-51
2023/05/04 06:35:58;;;;;;;23.67;13.55;;;;;;;9.40;76.08;101955.41;5073404;28;20110;-52
2023/05/04 06:38:23;;;;;;;25.38;13.88;;;;;;;9.51;75.86;101959.03;5073571;28;20460;-50
2023/05/04 06:40:48;;;;;;;24.63;14.00;;;;;;;9.68;75.88;101956.84;5073451;28;20052;-49
2023/05/04 06:43:14;;;;;;;23.80;13.70;;;;;;;9.84;75.49;101954.13;5073608;28;20046;-50
2023/05/04 06:45:40;;;;;;;23.08;14.35;;;;;;;9.90;74.22;101941.16;5073448;28;20036;-48
2023/05/04 06:48:07;;;;;;;22.15;13.50;;;;;;;10.03;73.56;101959.13;5073464;28;20091;-53
2023/05/04 06:50:33;;;;;;;23.73;13.20;;;;;;;10.13;73.58;101950.84;5073532;28;20036;-50
2023/05/04 06:53:07;;;;;;;22.67;13.68;;;;;;;10.21;72.78;101952.22;5073464;28;20017;-50
2023/05/04 06:55:32;;;;;;;;;;;;;;;10.28;72.86;101948.06;5073719;28;20104;-49
2023/05/04 06:57:58;;;;;;;24.42;13.43;;;;;;;10.38;72.29;101940.91;5073376;28;19912;-50
2023/05/04 07:00:23;;;;;;;23.52;13.20;;;;;;;10.43;71.08;101949.22;5073504;28;20028;-49
2023/05/04 07:02:48;;;;;;;22.48;13.48;;;;;;;10.50;71.16;101937.84;5073445;28;20028;-51
2023/05/04 07:05:14;;;;;;;21.48;12.73;;;;;;;10.65;71.16;101945.28;5073489;28;20032;-49
2023/05/04 07:07:39;;;;;;;21.08;12.60;;;;;;;10.76;70.13;101941.41;5073293;28;20053;-52
2023/05/04 07:10:05;;;;;;;20.95;12.25;;;;;;;10.89;69.78;101938.06;5073275;28;20516;-52
2023/05/04 07:12:30;;;;;;;21.92;12.27;;;;;;;10.98;69.18;101937.47;5073325;28;20036;-52
2023/05/04 07:14:56;;;;;;;20.77;12.00;;;;;;;11.06;68.22;101942.41;5073323;28;20028;-51
2023/05/04 07:17:24;;;;;;;22.48;12.85;;;;;;;11.14;68.20;101932.72;5073182;28;20029;-49
2023/05/04 07:19:51;;;;;;;20.75;12.82;;;;;;;11.21;68.73;101933.22;5073098;28;20052;-52
2023/05/04 07:22:16;;;;;;;20.75;11.98;;;;;;;11.27;67.79;101929.31;5071462;28;20028;-49
2023/05/04 07:24:42;;;;;;;22.13;12.55;;;;;;;11.34;67.09;101924.28;5072851;28;20484;-49
2023/05/04 07:27:07;;;;;;;20.83;12.38;;;;;;;11.45;67.21;101911.22;5072760;28;20104;-51
2023/05/04 07:29:32;;;;;;;21.92;12.80;;;;;;;11.53;66.38;101912.53;5071233;28;20395;-50
2023/05/04 07:31:58;;;;;;;20.42;12.60;;;;;;;11.68;66.30;101918.00;5072701;28;20025;-49
2023/05/04 07:34:23;;;;;;;21.10;12.20;;;;;;;11.86;65.80;101912.88;5072636;28;20025;-49
2023/05/04 07:36:49;;;;;;;22.05;12.73;;;;;;;11.99;65.43;101911.44;5072466;28;20020;-50
2023/05/04 07:39:15;;;;;;;21.38;11.82;;;;;;;12.16;65.11;101919.34;5071801;28;20044;-50
2023/05/04 07:41:41;;;;;;;23.05;12.57;;;;;;;12.31;64.29;101919.19;5072576;28;20052;-51
2023/05/04 07:44:07;;;;;;;22.55;12.15;;;;;;;12.37;63.61;101908.88;5072628;28;20052;-49
2023/05/04 07:46:33;;;;;;;19.98;11.90;;;;;;;12.46;62.63;101901.56;5072726;28;20029;-50
2023/05/04 07:48:58;;;;;;;21.42;12.80;;;;;;;12.51;62.22;101905.41;5072679;28;20043;-52
2023/05/04 07:51:23;;;;;;;20.88;12.27;;;;;;;12.62;62.40;101899.47;5072442;28;20025;-48
2023/05/04 07:53:49;;;;;;;19.88;12.05;;;;;;;12.82;62.73;101900.34;5072393;28;20028;-50
2023/05/04 07:56:14;;;;;;;21.08;12.48;;;;;;;13.01;62.27;101907.91;5072203;28;20582;-52
2023/05/04 07:58:40;;;;;;;21.15;12.10;;;;;;;13.18;61.18;101894.34;5072357;28;20040;-51
2023/05/04 08:01:05;;;;;;;20.58;12.70;;;;;;;13.29;60.89;101895.03;5072107;28;20028;-50
2023/05/04 08:03:31;;;;;;;19.48;12.07;;;;;;;13.45;60.16;101897.63;5072101;28;20116;-52
2023/05/04 08:05:56;;;;;;;20.73;12.35;;;;;;;13.51;59.40;101899.22;5072077;28;20033;-49
2023/05/04 08:08:22;;;;;;;20.42;12.10;;;;;;;13.53;58.54;101892.22;5072122;28;20051;-52
2023/05/04 08:10:47;;;;;;;20.42;12.32;;;;;;;13.67;59.13;101892.28;5071892;28;20461;-52
2023/05/04 08:13:12;;;;;;;21.65;12.30;;;;;;;13.85;59.08;101898.13;5072007;28;20100;-53
2023/05/04 08:15:38;;;;;;;22.65;12.63;;;;;;;13.91;57.87;101891.38;5071875;28;20025;-49
2023/05/04 08:18:03;;;;;;;22.65;11.75;;;;;;;14.06;57.09;101892.22;5070604;28;20400;-52
2023/05/04 08:20:29;;;;;;;22.27;11.95;;;;;;;14.16;57.38;101887.31;5071769;28;20073;-49
2023/05/04 08:22:54;;;;;;;19.20;11.50;;;;;;;14.31;56.77;101880.63;5071796;28;20025;-53
2023/05/04 08:25:21;;;;;;;21.30;11.60;;;;;;;14.54;57.09;101874.41;5070358;28;20114;-52
2023/05/04 08:27:46;;;;;;;22.02;11.32;;;;;;;14.64;55.30;101879.78;5071676;28;20070;-52
2023/05/04 08:30:12;;;;;;;22.73;12.32;;;;;;;14.66;55.22;101878.34;5071769;28;20056;-50
2023/05/04 08:32:38;;;;;;;22.45;12.35;;;;;;;14.75;55.90;101872.88;5071418;28;20553;-49
2023/05/04 08:35:03;;;;;;;21.38;12.15;;;;;;;14.86;55.38;101867.09;5071317;28;20410;-52
2023/05/04 08:37:29;;;;;;;23.20;12.07;;;;;;;14.97;55.08;101865.75;5071370;28;20116;-54
2023/05/04 08:39:55;;;;;;;21.55;12.70;;;;;;;14.98;54.63;101864.63;5070149;28;20117;-50
2023/05/04 08:42:27;;;;;;;21.25;13.43;;;;;;;15.05;54.26;101862.22;5071179;28;20025;-48
2023/05/04 08:44:55;;;;;;;20.80;12.13;;;;;;;15.09;53.68;101862.41;5071286;28;20044;-49
2023/05/04 08:47:21;;;;;;;21.20;11.75;;;;;;;15.19;53.92;101859.41;5071016;28;20074;-49
2023/05/04 08:49:47;;;;;;;22.00;12.43;;;;;;;15.32;53.80;101857.72;5071266;28;20024;-50
2023/05/04 08:52:13;;;;;;;21.73;12.32;;;;;;;15.47;52.94;101850.16;5070989;28;20047;-52
2023/05/04 08:54:38;;;;;;;24.52;12.13;;;;;;;15.60;52.84;101850.09;5071224;28;20127;-53
2023/05/04 08:57:04;;;;;;;22.88;12.15;;;;;;;15.82;53.97;101848.44;5071100;28;20137;-51
2023/05/04 08:59:31;;;;;;;21.52;12.20;;;;;;;16.00;52.22;101849.41;5071183;28;20040;-50
2023/05/04 09:01:58;;;;;;;21.65;12.30;;;;;;;16.15;51.77;101839.00;5071000;28;20036;-49
2023/05/04 09:04:23;;;;;;;21.60;12.70;;;;;;;16.38;51.89;101831.41;5071043;28;20024;-48
2023/05/04 09:06:49;;;;;;;20.77;12.30;;;;;;;16.51;50.47;101821.25;5070985;28;20046;-51
2023/05/04 09:09:15;;;;;;;21.88;12.43;;;;;;;16.64;51.47;101819.50;5069651;28;20068;-52
2023/05/04 09:11:40;;;;;;;20.80;12.60;;;;;;;16.81;50.60;101813.94;5069559;28;20024;-51
2023/05/04 09:14:05;;;;;;;20.98;12.77;;;;;;;16.99;50.03;101811.22;5071175;28;20024;-52
2023/05/04 09:16:37;;;;;;;22.83;12.95;;;;;;;16.99;49.42;101806.47;5070750;28;20028;-52
2023/05/04 09:19:03;;;;;;;21.20;12.55;;;;;;;16.85;49.50;101808.53;5071029;28;20032;-51
2023/05/04 09:21:30;;;;;;;22.67;12.90;;;;;;;16.93;50.07;101813.34;5070750;28;20025;-53
2023/05/04 09:23:56;;;;;;;20.52;12.18;;;;;;;17.08;49.94;101805.66;5070815;28;20406;-50
2023/05/04 09:26:26;;;;;;;21.67;12.98;;;;;;;17.20;49.75;101803.00;5069269;28;20037;-52
2023/05/04 09:28:51;;;;;;;22.75;13.00;;;;;;;17.20;49.09;101803.00;5070782;28;20048;-52
2023/05/04 09:31:17;;;;;;;21.58;12.55;;;;;;;17.29;48.74;101808.59;5070752;28;20024;-52
2023/05/04 09:33:43;;;;;;;21.48;11.93;;;;;;;17.41;48.44;101805.16;5070585;28;20552;-52
2023/05/04 09:36:17;;;;;;;21.83;13.02;;;;;;;17.55;48.85;101803.00;5070475;28;20546;-52
2023/05/04 09:38:43;;;;;;;21.52;12.88;;;;;;;17.62;47.74;101808.09;5070829;28;20028;-52
2023/05/04 09:41:08;;;;;;;21.75;12.88;;;;;;;17.74;48.23;101794.25;5070750;28;20021;-52
2023/05/04 09:43:40;;;;;;;21.73;13.02;;;;;;;17.85;47.44;101793.91;5070847;28;20115;-50
2023/05/04 09:46:13;;;;;;;21.02;12.77;;;;;;;17.97;46.76;101784.84;5071089;28;20047;-52
2023/05/04 09:48:52;;;;;;;22.70;13.40;;;;;;;18.05;47.55;101784.81;5070832;28;20035;-53
2023/05/04 09:51:20;;;;;;;20.77;12.60;;;;;;;18.10;46.03;101786.59;5069286;28;20437;-53
2023/05/04 09:53:47;;;;;;;23.38;13.57;;;;;;;18.13;46.66;101791.56;5070794;28;20354;-53
2023/05/04 09:56:18;;;;;;;22.10;13.25;;;;;;;18.20;46.49;101779.81;5070776;28;20094;-52
2023/05/04 09:58:45;;;;;;;19.92;12.60;;;;;;;18.26;46.71;101778.47;5070802;28;20421;-50
2023/05/04 10:01:10;;;;;;;21.13;13.35;;;;;;;18.35;46.72;101773.66;5070741;28;20082;-50
2023/05/04 10:03:36;;;;;;;21.67;12.75;;;;;;;18.49;46.97;101772.59;5073297;28;20040;-52
2023/05/04 10:06:04;;;;;;;21.45;12.77;;;;;;;18.63;46.46;101780.75;5074351;28;20040;-52
2023/05/04 10:08:31;;;;;;;22.02;13.85;;;;;;;18.77;45.46;101772.09;5074668;28;20032;-51
2023/05/04 10:10:56;;;;;;;22.40;13.18;;;;;;;18.88;45.24;101762.13;5074493;28;20021;-50
2023/05/04 10:13:22;;;;;;;22.77;13.32;;;;;;;18.91;44.45;101753.03;5073017;28;20098;-53
2023/05/04 10:15:59;;;;;;;23.75;13.10;;;;;;;18.98;45.85;101749.72;5074339;28;20054;-52
2023/05/04 10:18:44;;;;;;;21.77;13.13;;;;;;;19.04;44.97;101744.69;5073157;28;20024;-52
2023/05/04 10:21:30;;;;;;;21.77;13.10;;;;;;;19.13;45.19;101749.09;5074296;28;20384;-53
2023/05/04 10:24:01;;;;;;;21.83;13.02;;;;;;;19.28;44.56;101744.00;5074080;28;20020;-53
2023/05/04 10:26:32;;;;;;;21.90;13.18;;;;;;;19.45;44.52;101732.63;5074247;28;20036;-50
2023/05/04 10:29:18;;;;;;;22.27;12.95;;;;;;;19.60;44.41;101724.72;5073905;28;20059;-50
2023/05/04 10:31:43;;;;;;;22.25;13.00;;;;;;;19.68;43.58;101729.41;5073821;28;20519;-52
2023/05/04 10:34:10;;;;;;;20.95;12.73;;;;;;;19.73;43.12;101722.75;5073722;28;20048;-51
2023/05/04 10:36:39;;;;;;;22.25;12.57;;;;;;;19.73;42.99;101714.31;5073344;28;20043;-52
2023/05/04 10:39:17;;;;;;;23.58;12.88;;;;;;;19.70;44.41;101706.59;5072191;28;20063;-52
2023/05/04 10:42:06;;;;;;;21.15;13.05;;;;;;;19.63;43.73;101687.53;5073647;28;20024;-52
2023/05/04 10:44:34;;;;;;;20.48;12.40;;;;;;;19.76;43.36;101692.00;5073558;28;20036;-50
2023/05/04 10:47:01;;;;;;;21.05;12.57;;;;;;;19.89;43.05;101692.84;5073303;28;20036;-49
2023/05/04 10:49:27;;;;;;;20.63;12.32;;;;;;;20.03;44.05;101686.06;5073468;28;20025;-49
2023/05/04 10:52:07;;;;;;;20.40;11.80;;;;;;;20.17;43.16;101674.50;5073362;28;20086;-50
2023/05/04 10:54:35;;;;;;;21.85;11.70;;;;;;;20.14;41.07;101669.56;5073566;28;20033;-52
2023/05/04 10:57:05;;;;;;;24.55;11.43;;;;;;;20.21;40.81;101675.44;5073243;28;20060;-52
2023/05/04 10:59:32;;;;;;;20.08;11.30;;;;;;;20.22;39.83;101663.84;5073063;28;20043;-50
2023/05/04 11:01:57;;;;;;;19.95;11.70;;;;;;;20.25;39.91;101659.50;5073031;28;20507;-51
2023/05/04 11:04:23;;;;;;;21.17;11.43;;;;;;;20.26;39.66;101647.88;5072978;28;20044;-51
2023/05/04 11:07:03;;;;;;;19.80;11.07;;;;;;;20.29;40.60;101654.81;5073055;28;20024;-53
2023/05/04 11:09:35;;;;;;;20.05;11.40;;;;;;;20.31;39.88;101641.22;5073335;28;20031;-51
2023/05/04 11:12:01;;;;;;;19.00;11.18;;;;;;;20.52;39.42;101632.63;5073186;28;20028;-52